Edgar B Speer — WQZ9670 — position and weather

sailwx.info

Track history (hours):
 
Tides and Currents Weather Stations Pressure Air Temp Water Temp Dewpoint Dewpoint Depression Visibility Wind Speed Wind Dir Waves Ship Positions

Edgar B Speer

Owner: Great Lakes Fleet, Inc, DULUTH, MN. More information available from US FCC via Universal Licensing System and Coast Guard Vessel Documentation Center.

Last reported at 2014-Oct-27 21:27 UTC. Time now 2014-Oct-31 19:22 UTC.
Position N 45°57' W 083°54'.

Length 306 m; draft 8 m.

Type: Cargo ship. MMSI: 366971330.

Date/timePositionNaut miles runAvg speedWind from/ knotsBaromVisibWave heightAir tempDewpointWater temp
2014-Oct-27 21:27N 45°57' W 083°54'10 9.4
2014-Oct-27 20:21N 46°06' W 084°01'10 8.3
2014-Oct-27 19:07N 46°14' W 084°11'35 5.3
2014-Oct-27 12:30N 46°38' W 084°47'  
2014-Oct-25 00:29N 47°07' W 086°11'1213.4
2014-Oct-24 23:33N 47°03' W 085°54'4313.4
2014-Oct-24 20:21N 46°47' W 084°56'1113.4
2014-Oct-24 19:30N 46°37' W 084°48'55 6.7
2014-Oct-24 11:18N 45°55' W 083°56'1013.4
2014-Oct-24 10:33N 45°51' W 084°09'1413.6
2014-Oct-24 09:33N 45°51' W 084°28'1312.9
2014-Oct-24 08:33N 45°49' W 084°47'1313.5
2014-Oct-24 07:33N 45°50' W 085°06'1211.5
2014-Oct-24 06:33N 45°40' W 085°15'1413.9
2014-Oct-24 05:33N 45°29' W 085°27'1413.8
2014-Oct-24 04:33N 45°18' W 085°38'1413.6
2014-Oct-24 03:33N 45°07' W 085°50'1313.1
2014-Oct-24 02:33N 44°58' W 086°04'1412.9
2014-Oct-24 01:30N 44°48' W 086°17'1313.4
2014-Oct-24 00:33N 44°37' W 086°24'8813.7
2014-Oct-23 18:08N 43°11' W 086°49'86 2.2
2014-Oct-22 02:23N 44°36' W 086°32'1012.7
2014-Oct-22 01:33N 44°46' W 086°28'1312.6
2014-Oct-22 00:31N 44°59' W 086°23'1412.7
2014-Oct-21 23:27N 45°12' W 086°18'1112.8
2014-Oct-21 22:33N 45°23' W 086°14'1212.5
2014-Oct-21 21:33N 45°35' W 086°09'1212.0
2014-Oct-21 20:33N 45°44' W 085°58'1312.8
2014-Oct-21 19:33N 45°51' W 085°43'1212.2
2014-Oct-21 18:33N 45°53' W 085°26'1312.7
2014-Oct-21 17:33N 45°52' W 085°07'1312.9
2014-Oct-21 16:33N 45°50' W 084°49'1111.3
2014-Oct-21 15:33N 45°51' W 084°33'1212.3
2014-Oct-21 14:33N 45°53' W 084°16'1211.6
2014-Oct-21 13:33N 45°55' W 083°59'  
2014-Oct-18 01:33N 45°56' W 083°54'1312.9
2014-Oct-18 00:33N 45°50' W 084°11'1413.6
2014-Oct-17 23:33N 45°51' W 084°30'1312.9
2014-Oct-17 22:33N 45°49' W 084°49'1313.3
2014-Oct-17 21:33N 45°50' W 085°08'  
Track history (hours):
 
Tides and Currents Weather Stations Pressure Air Temp Water Temp Dewpoint Dewpoint Depression Visibility Wind Speed Wind Dir Waves Ship Positions

Edgar B Speer

Owner: Great Lakes Fleet, Inc, DULUTH, MN. More information available from US FCC via Universal Licensing System and Coast Guard Vessel Documentation Center.

Last reported at 2014-Oct-27 21:27 UTC. Time now 2014-Oct-31 19:22 UTC.
Position N 45°57' W 083°54'.

Length 306 m; draft 8 m.

Type: Cargo ship. MMSI: 366971330.

Date/timePositionNaut miles runAvg speedWind from/ knotsBaromVisibWave heightAir tempDewpointWater temp
2014-Oct-27 21:27N 45°57' W 083°54'10 9.4
2014-Oct-27 20:21N 46°06' W 084°01'10 8.3
2014-Oct-27 19:07N 46°14' W 084°11'35 5.3
2014-Oct-27 12:30N 46°38' W 084°47'  
2014-Oct-25 00:29N 47°07' W 086°11'1213.4
2014-Oct-24 23:33N 47°03' W 085°54'4313.4
2014-Oct-24 20:21N 46°47' W 084°56'1113.4
2014-Oct-24 19:30N 46°37' W 084°48'55 6.7
2014-Oct-24 11:18N 45°55' W 083°56'1013.4
2014-Oct-24 10:33N 45°51' W 084°09'1413.6
2014-Oct-24 09:33N 45°51' W 084°28'1312.9
2014-Oct-24 08:33N 45°49' W 084°47'1313.5
2014-Oct-24 07:33N 45°50' W 085°06'1211.5
2014-Oct-24 06:33N 45°40' W 085°15'1413.9
2014-Oct-24 05:33N 45°29' W 085°27'1413.8
2014-Oct-24 04:33N 45°18' W 085°38'1413.6
2014-Oct-24 03:33N 45°07' W 085°50'1313.1
2014-Oct-24 02:33N 44°58' W 086°04'1412.9
2014-Oct-24 01:30N 44°48' W 086°17'1313.4
2014-Oct-24 00:33N 44°37' W 086°24'8813.7
2014-Oct-23 18:08N 43°11' W 086°49'86 2.2
2014-Oct-22 02:23N 44°36' W 086°32'1012.7
2014-Oct-22 01:33N 44°46' W 086°28'1312.6
2014-Oct-22 00:31N 44°59' W 086°23'1412.7
2014-Oct-21 23:27N 45°12' W 086°18'1112.8
2014-Oct-21 22:33N 45°23' W 086°14'1212.5
2014-Oct-21 21:33N 45°35' W 086°09'1212.0
2014-Oct-21 20:33N 45°44' W 085°58'1312.8
2014-Oct-21 19:33N 45°51' W 085°43'1212.2
2014-Oct-21 18:33N 45°53' W 085°26'1312.7
2014-Oct-21 17:33N 45°52' W 085°07'1312.9
2014-Oct-21 16:33N 45°50' W 084°49'1111.3
2014-Oct-21 15:33N 45°51' W 084°33'1212.3
2014-Oct-21 14:33N 45°53' W 084°16'1211.6
2014-Oct-21 13:33N 45°55' W 083°59'  
2014-Oct-18 01:33N 45°56' W 083°54'1312.9
2014-Oct-18 00:33N 45°50' W 084°11'1413.6
2014-Oct-17 23:33N 45°51' W 084°30'1312.9
2014-Oct-17 22:33N 45°49' W 084°49'1313.3
2014-Oct-17 21:33N 45°50' W 085°08'  

Dump ship's entire track history